Newport, ME

8:28 PM EDT on August 29, 2014 (GMT -0400)
Bangor International | Change Station
CLOSE
Current Station
Airport
Location: Bangor,
Elevation: 190 ft
Nearby Weather Stations

Elev 190 ft 44.80 °N, 68.82 °W | Updated 35 minutes ago

Partly Cloudy
Partly Cloudy
57 °F
Feels Like 57 °F
N
0
Wind Variable Wind from North

Today
High -- | Low -- °F
--% Chance of Precip.
Yesterday
High -- | Low -- °F
Precip. -- in
5:55 AM 7:19 PM
Waxing Crescent, 17% visible
Pressure 30.21 in
Visibility 10.0 miles
Clouds Few 25000 ft
Dew Point 46 °F
Humidity 67%
Rainfall 0.00 in
Snow Depth Not available.
UV 0 out of 12
Pollen 7.30 out of 12
Ozone Good
PM2.5 Good
Flu Activity Not available.
METAR KBGR 292353Z 00000KT 10SM FEW250 14/08 A3021 RMK AO2 SLP228 T01390078 10228 20139 51011

More Conditions Fewer Conditions

Pressure 30.21 in
Visibility 10.0 miles
Clouds Few 25000 ft
Dew Point 46 °F
Humidity 67%
Rainfall 0.00 in
Snow Depth Not available.
UV 0 out of 12
Pollen 7.30 out of 12
Ozone Good
PM2.5 Good
Flu Activity Not available.
METAR KBGR 292353Z 00000KT 10SM FEW250 14/08 A3021 RMK AO2 SLP228 T01390078 10228 20139 51011

More Conditions Fewer Conditions

10-Day Weather Forecast

Almanac

Astronomy

Aug. 29, 2014 Rise Set
Actual Time 5:55 AM EDT 7:19 PM EDT
Civil Twilight 5:25 AM EDT 7:49 PM EDT
Nautical Twilight 4:48 AM EDT 8:26 PM EDT
Astronomical Twilight 4:09 AM EDT 9:05 PM EDT
Moon 9:53 AM EDT (8/29) 9:02 PM EDT (8/29)
Length of Visible Light 14h 24m
Length of Day
13h 23m
Tomorrow will be 2m 59s shorter.
Waxing Crescent, 17% of the Moon is Illuminated
Today
Waxing Crescent
Sep 2
First Quarter
Sep 8
Full
Sep 15
Last Quarter
Sep 24
New

Today's Extremes

State Highs State Lows

Community

WunderPhotos

Upload Photos

1,748,384 photos uploaded!

Nearby

Air Quality

  Air Quality AQ Index Pollutant
Yesterday Good
OZONE
Yesterday Good
PM2.5
Current Good
OZONE
Current Good
PM2.5
Friday Good
OZONE
Friday Good
PM2.5
Saturday Good
OZONE
Saturday Good
PM2.5
Sunday Good
OZONE
Sunday Good
PM2.5
Monday Good
OZONE
Monday Good
PM2.5
Tuesday Good
OZONE
Tuesday Good
PM2.5
Wednesday Good
OZONE
Wednesday Good
PM2.5

Snow Depth

Station Depth Elevation
No new snow has been reported.

Earthquake Activity

City Distance Mag. Time & Date
No recent earthquake activity has been reported nearby.
Minimum magnitude displayed is 2.5.

Coastal Water Temperatures

Place Temperature
Bar Harbor, ME 62.1 °F
Portland, ME 63.0 °F

Nearby Weather Stations